Winfield, IA

4:45 AM CST on February 01, 2015 (GMT -0600)
KIAMTUNI2 | Change Station
CLOSE
Current Station
Personal Weather Station
Location: Mt. Union, IA
Elevation: 722 ft
Nearby Weather Stations
Active Advisory: Winter Storm Warning

Elev 722 ft 41.07 °N, 91.39 °W | Updated 53 seconds ago

Snow
Snow
32.8 °F
Feels Like 26 °F
N
8.0
Wind Variable Wind from ESE
Gusts 10.0 mph

Today
High -- | Low -- °F
--% Chance of Precip.
Yesterday
High -- | Low -- °F
Precip. -- in
7:16 AM 5:22 PM
Waxing Gibbous, 94% visible
Pressure 29.83 in
Visibility 1.8 miles
Clouds Overcast 500 ft
Windchill 26 °F
Dew Point 30 °F
Humidity 88%
Rainfall 0.07 in
Snow Depth Not available.
UV 0 out of 12
Pollen .10 out of 12
Air Quality Not available.
Flu Activity Not available.
METAR KMPZ 011035Z AUTO 12008KT 1 3/4SM -SN OVC005 00/00 A2983 RMK AO2 T00000000

More Conditions Fewer Conditions

Pressure 29.83 in
Visibility 1.8 miles
Clouds Overcast 500 ft
Windchill 26 °F
Dew Point 30 °F
Humidity 88%
Rainfall 0.07 in
Snow Depth Not available.
UV 0 out of 12
Pollen .10 out of 12
Air Quality Not available.
Flu Activity Not available.
METAR KMPZ 011035Z AUTO 12008KT 1 3/4SM -SN OVC005 00/00 A2983 RMK AO2 T00000000

More Conditions Fewer Conditions

10-Day Weather Forecast

Almanac

Astronomy

Feb. 01, 2015 Rise Set
Actual Time
Civil Twilight
Nautical Twilight
Astronomical Twilight
Moon
Length of Visible Light
Length of Day
Tomorrow will be .
, % of the Moon is Illuminated

Today's Extremes

State Highs State Lows

Community

WunderPhotos

Upload Photos

1,792,343 photos uploaded!

WunderBlogs® & News

Nearby

Air Quality

  Air Quality AQ Index Pollutant
Not available.

Snow Depth

Station Depth Elevation

Earthquake Activity

City Distance Mag. Time & Date
Minimum magnitude displayed is 2.5.

Coastal Water Temperatures

Place Temperature

Nearby Weather Stations